createdAt,value
2023-05-07T00:06:06.407Z,13.2
2023-05-07T00:19:06.406Z,14.4
2023-05-07T00:32:06.484Z,15.8
2023-05-07T00:45:06.427Z,15.9
2023-05-07T00:58:06.433Z,15.1
2023-05-07T01:11:06.506Z,14.8
2023-05-07T01:24:06.521Z,14.6
2023-05-07T01:37:06.582Z,14.5
2023-05-07T01:50:06.579Z,14.7
2023-05-07T02:03:06.638Z,14.4
2023-05-07T02:16:06.691Z,14.2
2023-05-07T02:29:06.685Z,13.8
2023-05-07T02:42:06.716Z,13.5
2023-05-07T02:55:06.730Z,13.0
2023-05-07T03:08:06.774Z,12.9
2023-05-07T03:21:06.760Z,12.9
2023-05-07T03:34:06.738Z,13.1
2023-05-07T03:48:06.833Z,13.1
2023-05-07T04:02:06.858Z,13.0
2023-05-07T04:16:06.877Z,12.9
2023-05-07T04:30:06.850Z,13.2
2023-05-07T04:44:06.850Z,14.0
2023-05-07T04:58:06.884Z,14.8
2023-05-07T05:12:06.912Z,16.0
2023-05-07T05:26:06.920Z,16.3
2023-05-07T05:40:06.909Z,16.5
2023-05-07T05:54:06.934Z,17.4
2023-05-07T06:08:06.939Z,18.3
2023-05-07T06:22:06.967Z,19.6
2023-05-07T06:36:06.988Z,20.7
2023-05-07T07:25:07.065Z,24.5
2023-05-07T07:39:07.085Z,23.1
2023-05-07T07:53:07.098Z,22.8
2023-05-07T09:28:07.248Z,24.7
2023-05-07T09:42:07.255Z,25.4
2023-05-07T10:05:07.307Z,24.8
2023-05-07T10:35:07.311Z,28.3
2023-05-07T10:49:07.396Z,28.4
2023-05-07T11:03:07.419Z,27.9
2023-05-07T11:17:07.368Z,26.0
2023-05-07T11:31:07.410Z,24.2
2023-05-07T11:45:07.506Z,22.0
2023-05-07T11:59:07.427Z,20.6
2023-05-07T12:13:07.460Z,20.8
2023-05-07T12:27:07.452Z,25.1
2023-05-07T12:41:07.461Z,25.7
2023-05-07T12:55:07.493Z,27.3
2023-05-07T13:09:07.518Z,27.8
2023-05-07T13:23:07.552Z,28.6
2023-05-07T13:37:11.094Z,25.7
2023-05-07T13:51:07.676Z,26.7
2023-05-07T14:05:07.671Z,27.5
2023-05-07T14:19:07.646Z,27.8
2023-05-07T14:40:07.717Z,26.3
2023-05-07T15:52:07.833Z,22.6
2023-05-07T16:06:07.860Z,22.1
2023-05-07T16:20:07.899Z,21.9
2023-05-07T16:34:07.896Z,21.2
2023-05-07T16:48:07.954Z,20.4
2023-05-07T17:02:07.962Z,20.3
2023-05-07T17:16:07.984Z,20.4
2023-05-07T17:30:07.993Z,20.6
2023-05-07T17:44:07.997Z,19.9
2023-05-07T17:59:08.009Z,19.5
2023-05-07T18:13:08.073Z,18.9
2023-05-07T18:27:08.086Z,18.2
2023-05-07T18:41:08.096Z,18.2
2023-05-07T18:55:08.130Z,18.3
2023-05-07T19:08:08.117Z,18.0
2023-05-07T19:21:08.177Z,17.7
2023-05-07T19:34:08.200Z,17.8
2023-05-07T19:47:08.229Z,17.6
2023-05-07T20:00:08.262Z,17.4
2023-05-07T20:13:08.292Z,16.9
2023-05-07T20:26:08.295Z,16.3
2023-05-07T20:39:08.343Z,16.0
2023-05-07T20:52:08.363Z,16.1
2023-05-07T21:05:08.347Z,16.0
2023-05-07T21:18:08.421Z,15.9
2023-05-07T21:31:08.423Z,15.9
2023-05-07T21:44:08.456Z,15.9
2023-05-07T21:57:08.459Z,15.6
2023-05-07T22:10:08.454Z,15.6
2023-05-07T22:23:08.474Z,15.6
2023-05-07T22:36:08.517Z,15.6
2023-05-07T22:49:08.516Z,15.5
2023-05-07T23:02:08.529Z,15.4
2023-05-07T23:15:08.536Z,15.4
2023-05-07T23:28:08.566Z,15.4
2023-05-07T23:41:08.634Z,15.4
2023-05-07T23:54:08.702Z,15.3
